sensor_id;sensor_type;location;lat;lon;timestamp;temperature;humidity
62154;DHT22;48140;45.486;9.226;2022-08-19T00:01:34;21.50;94.20
62154;DHT22;48140;45.486;9.226;2022-08-19T00:04:01;21.50;94.10
62154;DHT22;48140;45.486;9.226;2022-08-19T00:06:27;21.50;94.00
62154;DHT22;48140;45.486;9.226;2022-08-19T00:08:53;21.60;93.90
62154;DHT22;48140;45.486;9.226;2022-08-19T00:11:19;21.60;93.60
62154;DHT22;48140;45.486;9.226;2022-08-19T00:13:45;21.60;93.70
62154;DHT22;48140;45.486;9.226;2022-08-19T00:16:14;21.60;93.60
62154;DHT22;48140;45.486;9.226;2022-08-19T00:18:39;21.50;93.80
62154;DHT22;48140;45.486;9.226;2022-08-19T00:21:05;21.50;93.80
62154;DHT22;48140;45.486;9.226;2022-08-19T00:23:32;21.40;94.00
62154;DHT22;48140;45.486;9.226;2022-08-19T00:26:00;21.40;94.10
62154;DHT22;48140;45.486;9.226;2022-08-19T00:28:25;21.40;94.20
62154;DHT22;48140;45.486;9.226;2022-08-19T00:30:51;21.40;94.00
62154;DHT22;48140;45.486;9.226;2022-08-19T00:33:18;21.40;94.10
62154;DHT22;48140;45.486;9.226;2022-08-19T00:35:44;21.40;94.00
62154;DHT22;48140;45.486;9.226;2022-08-19T00:38:09;21.40;94.20
62154;DHT22;48140;45.486;9.226;2022-08-19T00:40:35;21.40;94.20
62154;DHT22;48140;45.486;9.226;2022-08-19T00:43:00;21.40;94.00
62154;DHT22;48140;45.486;9.226;2022-08-19T00:45:26;21.50;94.00
62154;DHT22;48140;45.486;9.226;2022-08-19T00:47:53;21.50;94.20
62154;DHT22;48140;45.486;9.226;2022-08-19T00:50:19;21.50;94.00
62154;DHT22;48140;45.486;9.226;2022-08-19T00:52:47;21.50;94.00
62154;DHT22;48140;45.486;9.226;2022-08-19T00:55:19;21.50;94.20
62154;DHT22;48140;45.486;9.226;2022-08-19T00:57:48;21.50;94.10
62154;DHT22;48140;45.486;9.226;2022-08-19T01:00:16;21.60;93.70
62154;DHT22;48140;45.486;9.226;2022-08-19T01:02:42;21.60;93.50
62154;DHT22;48140;45.486;9.226;2022-08-19T01:05:09;21.60;93.30
62154;DHT22;48140;45.486;9.226;2022-08-19T01:07:37;21.50;93.60
62154;DHT22;48140;45.486;9.226;2022-08-19T01:10:04;21.50;93.70
62154;DHT22;48140;45.486;9.226;2022-08-19T01:12:30;21.50;94.10
62154;DHT22;48140;45.486;9.226;2022-08-19T01:14:56;21.60;93.60
62154;DHT22;48140;45.486;9.226;2022-08-19T01:17:22;21.60;93.70
62154;DHT22;48140;45.486;9.226;2022-08-19T01:19:47;21.60;93.80
62154;DHT22;48140;45.486;9.226;2022-08-19T01:24:45;21.50;94.10
62154;DHT22;48140;45.486;9.226;2022-08-19T01:27:11;21.50;93.80
62154;DHT22;48140;45.486;9.226;2022-08-19T01:29:38;21.50;94.00
62154;DHT22;48140;45.486;9.226;2022-08-19T01:32:04;21.50;94.10
62154;DHT22;48140;45.486;9.226;2022-08-19T01:34:29;21.50;94.10
62154;DHT22;48140;45.486;9.226;2022-08-19T01:36:55;21.50;94.10
62154;DHT22;48140;45.486;9.226;2022-08-19T01:39:22;21.50;94.70
62154;DHT22;48140;45.486;9.226;2022-08-19T01:41:47;21.50;94.40
62154;DHT22;48140;45.486;9.226;2022-08-19T01:44:13;21.50;94.40
62154;DHT22;48140;45.486;9.226;2022-08-19T01:46:39;21.60;94.40
62154;DHT22;48140;45.486;9.226;2022-08-19T01:49:05;21.60;94.20
62154;DHT22;48140;45.486;9.226;2022-08-19T01:51:31;21.60;94.30
62154;DHT22;48140;45.486;9.226;2022-08-19T01:53:57;21.60;94.30
62154;DHT22;48140;45.486;9.226;2022-08-19T01:56:22;21.60;94.00
62154;DHT22;48140;45.486;9.226;2022-08-19T01:58:53;21.70;93.80
62154;DHT22;48140;45.486;9.226;2022-08-19T02:01:19;21.70;93.70
62154;DHT22;48140;45.486;9.226;2022-08-19T02:03:44;21.70;93.50
62154;DHT22;48140;45.486;9.226;2022-08-19T02:06:11;21.70;93.50
62154;DHT22;48140;45.486;9.226;2022-08-19T02:08:37;21.80;93.10
62154;DHT22;48140;45.486;9.226;2022-08-19T02:11:03;21.60;93.40
62154;DHT22;48140;45.486;9.226;2022-08-19T02:13:30;21.60;93.70
62154;DHT22;48140;45.486;9.226;2022-08-19T02:15:56;21.50;94.00
62154;DHT22;48140;45.486;9.226;2022-08-19T02:18:21;21.40;94.30
62154;DHT22;48140;45.486;9.226;2022-08-19T02:20:47;21.40;94.50
62154;DHT22;48140;45.486;9.226;2022-08-19T02:23:13;21.40;94.50
62154;DHT22;48140;45.486;9.226;2022-08-19T02:25:38;21.30;94.80
62154;DHT22;48140;45.486;9.226;2022-08-19T02:28:04;21.30;94.80
62154;DHT22;48140;45.486;9.226;2022-08-19T02:30:30;21.30;95.00
62154;DHT22;48140;45.486;9.226;2022-08-19T02:32:56;21.40;94.80
62154;DHT22;48140;45.486;9.226;2022-08-19T02:35:21;21.40;94.70
62154;DHT22;48140;45.486;9.226;2022-08-19T02:37:47;21.30;94.60
62154;DHT22;48140;45.486;9.226;2022-08-19T02:40:32;21.30;94.80
62154;DHT22;48140;45.486;9.226;2022-08-19T02:43:01;21.30;95.00
62154;DHT22;48140;45.486;9.226;2022-08-19T02:45:31;21.40;94.80
62154;DHT22;48140;45.486;9.226;2022-08-19T02:47:56;21.30;94.60
62154;DHT22;48140;45.486;9.226;2022-08-19T02:50:22;21.40;94.60
62154;DHT22;48140;45.486;9.226;2022-08-19T02:52:48;21.40;94.60
62154;DHT22;48140;45.486;9.226;2022-08-19T02:55:13;21.40;94.50
62154;DHT22;48140;45.486;9.226;2022-08-19T02:57:39;21.40;94.70
62154;DHT22;48140;45.486;9.226;2022-08-19T03:00:08;21.30;94.80
62154;DHT22;48140;45.486;9.226;2022-08-19T03:02:36;21.30;95.10
62154;DHT22;48140;45.486;9.226;2022-08-19T03:05:02;21.30;95.10
62154;DHT22;48140;45.486;9.226;2022-08-19T03:07:28;21.30;95.20
62154;DHT22;48140;45.486;9.226;2022-08-19T03:09:53;21.30;95.30
62154;DHT22;48140;45.486;9.226;2022-08-19T03:12:19;21.30;95.50
62154;DHT22;48140;45.486;9.226;2022-08-19T03:14:45;21.20;95.60
62154;DHT22;48140;45.486;9.226;2022-08-19T03:17:11;21.30;95.40
62154;DHT22;48140;45.486;9.226;2022-08-19T03:19:38;21.30;95.30
62154;DHT22;48140;45.486;9.226;2022-08-19T03:22:03;21.40;95.10
62154;DHT22;48140;45.486;9.226;2022-08-19T03:24:30;21.30;95.00
62154;DHT22;48140;45.486;9.226;2022-08-19T03:26:56;21.20;95.30
62154;DHT22;48140;45.486;9.226;2022-08-19T03:29:22;21.20;95.40
62154;DHT22;48140;45.486;9.226;2022-08-19T03:31:48;21.30;95.50
62154;DHT22;48140;45.486;9.226;2022-08-19T03:34:16;21.40;95.10
62154;DHT22;48140;45.486;9.226;2022-08-19T03:36:42;21.30;95.50
62154;DHT22;48140;45.486;9.226;2022-08-19T03:39:09;21.40;95.00
62154;DHT22;48140;45.486;9.226;2022-08-19T03:41:39;21.40;95.10
62154;DHT22;48140;45.486;9.226;2022-08-19T03:44:04;21.30;95.20
62154;DHT22;48140;45.486;9.226;2022-08-19T03:46:31;21.40;95.30
62154;DHT22;48140;45.486;9.226;2022-08-19T03:48:57;21.30;95.40
62154;DHT22;48140;45.486;9.226;2022-08-19T03:51:24;21.40;95.30
62154;DHT22;48140;45.486;9.226;2022-08-19T03:53:51;21.50;95.20
62154;DHT22;48140;45.486;9.226;2022-08-19T03:56:17;21.50;95.10
62154;DHT22;48140;45.486;9.226;2022-08-19T03:58:43;21.50;95.00
62154;DHT22;48140;45.486;9.226;2022-08-19T04:01:10;21.50;95.10
62154;DHT22;48140;45.486;9.226;2022-08-19T04:03:36;21.60;95.30
62154;DHT22;48140;45.486;9.226;2022-08-19T04:06:09;21.50;95.30
62154;DHT22;48140;45.486;9.226;2022-08-19T04:08:35;21.50;95.50
62154;DHT22;48140;45.486;9.226;2022-08-19T04:11:06;21.60;95.80
62154;DHT22;48140;45.486;9.226;2022-08-19T04:13:31;21.60;96.10
62154;DHT22;48140;45.486;9.226;2022-08-19T04:15:57;21.60;96.10
62154;DHT22;48140;45.486;9.226;2022-08-19T04:18:22;21.60;96.50
62154;DHT22;48140;45.486;9.226;2022-08-19T04:20:48;21.50;97.00
62154;DHT22;48140;45.486;9.226;2022-08-19T04:23:13;21.50;97.10
62154;DHT22;48140;45.486;9.226;2022-08-19T04:25:43;21.50;96.90
62154;DHT22;48140;45.486;9.226;2022-08-19T04:28:09;21.40;97.20
62154;DHT22;48140;45.486;9.226;2022-08-19T04:30:42;21.50;97.70
62154;DHT22;48140;45.486;9.226;2022-08-19T04:33:09;21.40;98.80
62154;DHT22;48140;45.486;9.226;2022-08-19T04:35:36;21.40;99.90
62154;DHT22;48140;45.486;9.226;2022-08-19T04:38:01;21.40;99.90
62154;DHT22;48140;45.486;9.226;2022-08-19T04:40:27;21.30;99.90
62154;DHT22;48140;45.486;9.226;2022-08-19T04:43:11;21.40;99.90
62154;DHT22;48140;45.486;9.226;2022-08-19T04:45:38;21.30;99.90
62154;DHT22;48140;45.486;9.226;2022-08-19T04:48:04;21.30;99.90
62154;DHT22;48140;45.486;9.226;2022-08-19T04:50:30;21.30;99.90
62154;DHT22;48140;45.486;9.226;2022-08-19T04:52:56;21.30;99.90
62154;DHT22;48140;45.486;9.226;2022-08-19T04:55:21;21.30;99.90
62154;DHT22;48140;45.486;9.226;2022-08-19T04:57:47;21.20;99.90
62154;DHT22;48140;45.486;9.226;2022-08-19T05:00:12;21.20;99.90
62154;DHT22;48140;45.486;9.226;2022-08-19T05:02:38;21.20;99.90
62154;DHT22;48140;45.486;9.226;2022-08-19T05:05:04;21.20;99.90
62154;DHT22;48140;45.486;9.226;2022-08-19T05:07:31;21.20;99.90
62154;DHT22;48140;45.486;9.226;2022-08-19T05:09:56;21.10;99.90
62154;DHT22;48140;45.486;9.226;2022-08-19T05:12:22;21.10;99.90
62154;DHT22;48140;45.486;9.226;2022-08-19T05:14:47;21.10;99.90
62154;DHT22;48140;45.486;9.226;2022-08-19T05:17:14;21.00;99.90
62154;DHT22;48140;45.486;9.226;2022-08-19T05:19:40;20.90;99.90
62154;DHT22;48140;45.486;9.226;2022-08-19T05:22:24;20.90;99.90
62154;DHT22;48140;45.486;9.226;2022-08-19T05:25:10;20.80;99.90
62154;DHT22;48140;45.486;9.226;2022-08-19T05:27:37;20.70;99.90
62154;DHT22;48140;45.486;9.226;2022-08-19T05:30:03;20.70;99.90
62154;DHT22;48140;45.486;9.226;2022-08-19T05:32:29;20.60;99.90
62154;DHT22;48140;45.486;9.226;2022-08-19T05:34:54;20.60;99.90
62154;DHT22;48140;45.486;9.226;2022-08-19T05:37:20;20.70;99.90
62154;DHT22;48140;45.486;9.226;2022-08-19T05:39:45;20.60;99.90
62154;DHT22;48140;45.486;9.226;2022-08-19T05:42:11;20.60;99.90
62154;DHT22;48140;45.486;9.226;2022-08-19T05:44:41;20.60;99.90
62154;DHT22;48140;45.486;9.226;2022-08-19T05:47:09;20.60;99.90
62154;DHT22;48140;45.486;9.226;2022-08-19T05:49:35;20.60;99.90
62154;DHT22;48140;45.486;9.226;2022-08-19T05:52:07;20.60;99.90
62154;DHT22;48140;45.486;9.226;2022-08-19T05:54:33;20.70;99.90
62154;DHT22;48140;45.486;9.226;2022-08-19T05:56:59;20.70;99.90
62154;DHT22;48140;45.486;9.226;2022-08-19T05:59:25;20.70;99.90
62154;DHT22;48140;45.486;9.226;2022-08-19T06:01:51;20.70;99.90
62154;DHT22;48140;45.486;9.226;2022-08-19T06:04:18;20.70;99.90
62154;DHT22;48140;45.486;9.226;2022-08-19T06:06:45;20.80;99.90
62154;DHT22;48140;45.486;9.226;2022-08-19T06:09:11;20.80;99.90
62154;DHT22;48140;45.486;9.226;2022-08-19T06:11:39;20.90;99.90
62154;DHT22;48140;45.486;9.226;2022-08-19T06:14:06;20.90;99.90
62154;DHT22;48140;45.486;9.226;2022-08-19T06:16:34;20.90;99.90
62154;DHT22;48140;45.486;9.226;2022-08-19T06:19:01;21.00;99.90
62154;DHT22;48140;45.486;9.226;2022-08-19T06:21:27;21.00;99.90
62154;DHT22;48140;45.486;9.226;2022-08-19T06:23:54;20.90;99.90
62154;DHT22;48140;45.486;9.226;2022-08-19T06:26:19;20.90;99.90
62154;DHT22;48140;45.486;9.226;2022-08-19T06:28:46;20.90;99.90
62154;DHT22;48140;45.486;9.226;2022-08-19T06:31:22;20.90;99.90
62154;DHT22;48140;45.486;9.226;2022-08-19T06:33:48;20.90;99.90
62154;DHT22;48140;45.486;9.226;2022-08-19T06:36:23;20.90;99.90
62154;DHT22;48140;45.486;9.226;2022-08-19T06:38:55;20.90;99.90
62154;DHT22;48140;45.486;9.226;2022-08-19T06:41:23;21.00;99.90
62154;DHT22;48140;45.486;9.226;2022-08-19T06:43:49;20.90;99.90
62154;DHT22;48140;45.486;9.226;2022-08-19T06:46:15;20.80;99.90
62154;DHT22;48140;45.486;9.226;2022-08-19T06:48:41;20.80;99.90
62154;DHT22;48140;45.486;9.226;2022-08-19T06:51:06;20.80;99.90
62154;DHT22;48140;45.486;9.226;2022-08-19T06:53:32;20.90;99.90
62154;DHT22;48140;45.486;9.226;2022-08-19T06:55:57;20.90;99.90
62154;DHT22;48140;45.486;9.226;2022-08-19T06:58:30;21.00;99.90
62154;DHT22;48140;45.486;9.226;2022-08-19T07:00:59;20.90;99.90
62154;DHT22;48140;45.486;9.226;2022-08-19T07:03:26;20.90;99.90
62154;DHT22;48140;45.486;9.226;2022-08-19T07:05:53;21.00;99.90
62154;DHT22;48140;45.486;9.226;2022-08-19T07:08:19;21.20;99.90
62154;DHT22;48140;45.486;9.226;2022-08-19T07:10:45;21.30;99.90
62154;DHT22;48140;45.486;9.226;2022-08-19T07:13:10;21.30;99.90
62154;DHT22;48140;45.486;9.226;2022-08-19T07:15:36;21.60;99.90
62154;DHT22;48140;45.486;9.226;2022-08-19T07:18:02;21.70;99.90
62154;DHT22;48140;45.486;9.226;2022-08-19T07:20:28;21.70;99.40
62154;DHT22;48140;45.486;9.226;2022-08-19T07:22:53;21.70;99.00
62154;DHT22;48140;45.486;9.226;2022-08-19T07:25:19;21.70;98.90
62154;DHT22;48140;45.486;9.226;2022-08-19T07:27:48;21.70;99.40
62154;DHT22;48140;45.486;9.226;2022-08-19T07:30:13;21.90;98.40
62154;DHT22;48140;45.486;9.226;2022-08-19T07:32:39;22.10;96.90
62154;DHT22;48140;45.486;9.226;2022-08-19T07:35:05;22.20;97.00
62154;DHT22;48140;45.486;9.226;2022-08-19T07:37:31;22.30;97.10
62154;DHT22;48140;45.486;9.226;2022-08-19T07:39:57;22.40;96.80
62154;DHT22;48140;45.486;9.226;2022-08-19T07:42:22;22.40;94.50
62154;DHT22;48140;45.486;9.226;2022-08-19T07:44:48;22.50;94.40
62154;DHT22;48140;45.486;9.226;2022-08-19T07:47:13;22.60;94.50
62154;DHT22;48140;45.486;9.226;2022-08-19T07:49:40;22.60;93.50
62154;DHT22;48140;45.486;9.226;2022-08-19T07:52:08;22.70;94.40
62154;DHT22;48140;45.486;9.226;2022-08-19T07:54:34;22.80;94.90
62154;DHT22;48140;45.486;9.226;2022-08-19T07:57:01;22.90;94.20
62154;DHT22;48140;45.486;9.226;2022-08-19T07:59:27;22.90;94.30
62154;DHT22;48140;45.486;9.226;2022-08-19T08:01:54;22.90;93.60
62154;DHT22;48140;45.486;9.226;2022-08-19T08:04:20;23.00;93.90
62154;DHT22;48140;45.486;9.226;2022-08-19T08:07:04;23.10;92.90
62154;DHT22;48140;45.486;9.226;2022-08-19T08:09:49;23.30;92.40
62154;DHT22;48140;45.486;9.226;2022-08-19T08:12:16;23.40;91.70
62154;DHT22;48140;45.486;9.226;2022-08-19T08:14:44;23.40;91.80
62154;DHT22;48140;45.486;9.226;2022-08-19T08:17:11;23.50;92.00
62154;DHT22;48140;45.486;9.226;2022-08-19T08:19:37;23.60;91.90
62154;DHT22;48140;45.486;9.226;2022-08-19T08:22:05;23.90;91.90
62154;DHT22;48140;45.486;9.226;2022-08-19T08:24:31;24.10;91.00
62154;DHT22;48140;45.486;9.226;2022-08-19T08:26:57;24.20;90.50
62154;DHT22;48140;45.486;9.226;2022-08-19T08:29:24;24.10;89.50
62154;DHT22;48140;45.486;9.226;2022-08-19T08:31:51;24.10;88.50
62154;DHT22;48140;45.486;9.226;2022-08-19T08:34:16;24.10;90.40
62154;DHT22;48140;45.486;9.226;2022-08-19T08:36:43;24.10;87.90
62154;DHT22;48140;45.486;9.226;2022-08-19T08:39:10;24.20;88.30
62154;DHT22;48140;45.486;9.226;2022-08-19T08:44:02;24.30;86.50
62154;DHT22;48140;45.486;9.226;2022-08-19T08:51:50;24.80;84.20
62154;DHT22;48140;45.486;9.226;2022-08-19T08:54:14;24.90;82.40
62154;DHT22;48140;45.486;9.226;2022-08-19T08:56:41;25.00;82.70
62154;DHT22;48140;45.486;9.226;2022-08-19T09:01:53;25.40;80.30
62154;DHT22;48140;45.486;9.226;2022-08-19T09:04:18;25.20;78.40
62154;DHT22;48140;45.486;9.226;2022-08-19T09:06:49;25.10;80.30
62154;DHT22;48140;45.486;9.226;2022-08-19T09:09:18;25.20;79.60
62154;DHT22;48140;45.486;9.226;2022-08-19T09:11:56;25.40;77.90
62154;DHT22;48140;45.486;9.226;2022-08-19T09:14:35;25.70;76.50
62154;DHT22;48140;45.486;9.226;2022-08-19T09:17:03;25.70;75.70
62154;DHT22;48140;45.486;9.226;2022-08-19T09:19:34;25.60;74.30
62154;DHT22;48140;45.486;9.226;2022-08-19T09:21:59;25.30;75.50
62154;DHT22;48140;45.486;9.226;2022-08-19T09:24:26;25.10;75.20
62154;DHT22;48140;45.486;9.226;2022-08-19T09:26:51;25.30;75.50
62154;DHT22;48140;45.486;9.226;2022-08-19T09:29:17;25.40;75.00
62154;DHT22;48140;45.486;9.226;2022-08-19T09:31:42;25.70;74.20
62154;DHT22;48140;45.486;9.226;2022-08-19T09:34:08;25.60;73.40
62154;DHT22;48140;45.486;9.226;2022-08-19T09:36:33;25.60;74.00
62154;DHT22;48140;45.486;9.226;2022-08-19T09:39:02;25.60;73.70
62154;DHT22;48140;45.486;9.226;2022-08-19T09:41:28;25.70;74.70
62154;DHT22;48140;45.486;9.226;2022-08-19T09:43:54;25.80;76.30
62154;DHT22;48140;45.486;9.226;2022-08-19T09:46:24;25.90;75.10
62154;DHT22;48140;45.486;9.226;2022-08-19T09:48:50;26.00;74.30
62154;DHT22;48140;45.486;9.226;2022-08-19T09:51:18;26.10;73.70
62154;DHT22;48140;45.486;9.226;2022-08-19T09:53:45;26.30;71.70
62154;DHT22;48140;45.486;9.226;2022-08-19T09:56:10;26.30;71.00
62154;DHT22;48140;45.486;9.226;2022-08-19T09:58:36;26.30;69.60
62154;DHT22;48140;45.486;9.226;2022-08-19T10:01:02;26.20;69.70
62154;DHT22;48140;45.486;9.226;2022-08-19T10:03:28;26.20;68.30
62154;DHT22;48140;45.486;9.226;2022-08-19T10:05:55;26.20;65.70
62154;DHT22;48140;45.486;9.226;2022-08-19T10:08:22;26.30;65.90
62154;DHT22;48140;45.486;9.226;2022-08-19T10:10:48;26.20;66.50
62154;DHT22;48140;45.486;9.226;2022-08-19T10:13:15;26.10;66.10
62154;DHT22;48140;45.486;9.226;2022-08-19T10:15:40;26.30;65.50
62154;DHT22;48140;45.486;9.226;2022-08-19T10:18:07;26.20;66.70
62154;DHT22;48140;45.486;9.226;2022-08-19T10:20:32;26.30;67.00
62154;DHT22;48140;45.486;9.226;2022-08-19T10:23:00;26.30;66.10
62154;DHT22;48140;45.486;9.226;2022-08-19T10:25:26;26.50;66.70
62154;DHT22;48140;45.486;9.226;2022-08-19T10:27:52;26.80;64.80
62154;DHT22;48140;45.486;9.226;2022-08-19T10:30:18;27.10;63.70
62154;DHT22;48140;45.486;9.226;2022-08-19T10:32:44;27.10;62.90
62154;DHT22;48140;45.486;9.226;2022-08-19T10:35:11;27.00;63.00
62154;DHT22;48140;45.486;9.226;2022-08-19T10:37:37;27.00;60.70
62154;DHT22;48140;45.486;9.226;2022-08-19T10:40:04;26.90;61.10
62154;DHT22;48140;45.486;9.226;2022-08-19T10:42:30;26.90;61.50
62154;DHT22;48140;45.486;9.226;2022-08-19T10:44:56;27.30;60.80
62154;DHT22;48140;45.486;9.226;2022-08-19T10:47:22;27.70;59.90
62154;DHT22;48140;45.486;9.226;2022-08-19T10:49:51;27.70;59.70
62154;DHT22;48140;45.486;9.226;2022-08-19T10:52:35;27.90;58.60
62154;DHT22;48140;45.486;9.226;2022-08-19T10:55:05;28.10;58.10
62154;DHT22;48140;45.486;9.226;2022-08-19T10:57:50;28.40;56.90
62154;DHT22;48140;45.486;9.226;2022-08-19T11:00:18;28.80;56.80
62154;DHT22;48140;45.486;9.226;2022-08-19T11:02:44;28.50;56.00
62154;DHT22;48140;45.486;9.226;2022-08-19T11:05:09;28.80;55.50
62154;DHT22;48140;45.486;9.226;2022-08-19T11:07:37;28.80;54.90
62154;DHT22;48140;45.486;9.226;2022-08-19T11:10:03;29.10;54.40
62154;DHT22;48140;45.486;9.226;2022-08-19T11:12:29;29.40;53.50
62154;DHT22;48140;45.486;9.226;2022-08-19T11:14:54;29.50;53.40
62154;DHT22;48140;45.486;9.226;2022-08-19T11:17:20;29.50;53.50
62154;DHT22;48140;45.486;9.226;2022-08-19T11:19:48;29.60;53.50
62154;DHT22;48140;45.486;9.226;2022-08-19T11:22:14;29.70;51.60
62154;DHT22;48140;45.486;9.226;2022-08-19T11:24:40;29.50;52.50
62154;DHT22;48140;45.486;9.226;2022-08-19T11:27:06;29.30;51.40
62154;DHT22;48140;45.486;9.226;2022-08-19T11:29:32;28.80;53.40
62154;DHT22;48140;45.486;9.226;2022-08-19T11:31:59;28.30;54.60
62154;DHT22;48140;45.486;9.226;2022-08-19T11:34:27;28.20;54.80
62154;DHT22;48140;45.486;9.226;2022-08-19T11:36:54;28.40;54.90
62154;DHT22;48140;45.486;9.226;2022-08-19T11:39:23;28.30;53.20
62154;DHT22;48140;45.486;9.226;2022-08-19T11:41:50;28.20;53.80
62154;DHT22;48140;45.486;9.226;2022-08-19T11:44:15;28.40;54.50
62154;DHT22;48140;45.486;9.226;2022-08-19T11:46:42;28.20;54.30
62154;DHT22;48140;45.486;9.226;2022-08-19T11:49:15;28.20;54.50
62154;DHT22;48140;45.486;9.226;2022-08-19T11:51:41;27.90;55.50
62154;DHT22;48140;45.486;9.226;2022-08-19T11:54:08;27.80;55.30
62154;DHT22;48140;45.486;9.226;2022-08-19T11:56:36;28.00;54.40
62154;DHT22;48140;45.486;9.226;2022-08-19T11:59:01;27.90;54.70
62154;DHT22;48140;45.486;9.226;2022-08-19T12:01:27;27.80;54.90
62154;DHT22;48140;45.486;9.226;2022-08-19T12:03:53;27.70;54.90
62154;DHT22;48140;45.486;9.226;2022-08-19T12:06:21;27.90;55.00
62154;DHT22;48140;45.486;9.226;2022-08-19T12:08:49;28.20;54.00
62154;DHT22;48140;45.486;9.226;2022-08-19T12:11:14;28.30;54.40
62154;DHT22;48140;45.486;9.226;2022-08-19T12:13:40;28.10;55.20
62154;DHT22;48140;45.486;9.226;2022-08-19T12:16:13;28.30;54.80
62154;DHT22;48140;45.486;9.226;2022-08-19T12:18:39;28.10;55.20
62154;DHT22;48140;45.486;9.226;2022-08-19T12:21:08;28.30;55.10
62154;DHT22;48140;45.486;9.226;2022-08-19T12:23:36;28.30;54.40
62154;DHT22;48140;45.486;9.226;2022-08-19T12:26:03;28.20;55.30
62154;DHT22;48140;45.486;9.226;2022-08-19T12:28:28;28.80;53.10
62154;DHT22;48140;45.486;9.226;2022-08-19T12:30:55;29.50;50.70
62154;DHT22;48140;45.486;9.226;2022-08-19T12:33:22;29.70;49.50
62154;DHT22;48140;45.486;9.226;2022-08-19T12:35:50;29.90;49.10
62154;DHT22;48140;45.486;9.226;2022-08-19T12:38:16;29.60;48.60
62154;DHT22;48140;45.486;9.226;2022-08-19T12:40:44;29.60;48.80
62154;DHT22;48140;45.486;9.226;2022-08-19T12:43:10;30.10;48.90
62154;DHT22;48140;45.486;9.226;2022-08-19T12:45:36;30.50;48.00
62154;DHT22;48140;45.486;9.226;2022-08-19T12:48:03;30.50;48.40
62154;DHT22;48140;45.486;9.226;2022-08-19T12:50:29;30.50;48.50
62154;DHT22;48140;45.486;9.226;2022-08-19T12:52:55;30.30;49.40
62154;DHT22;48140;45.486;9.226;2022-08-19T12:55:21;30.10;49.70
62154;DHT22;48140;45.486;9.226;2022-08-19T12:57:47;30.20;49.70
62154;DHT22;48140;45.486;9.226;2022-08-19T13:00:15;30.80;48.60
62154;DHT22;48140;45.486;9.226;2022-08-19T13:02:42;31.10;46.90
62154;DHT22;48140;45.486;9.226;2022-08-19T13:05:10;30.70;47.90
62154;DHT22;48140;45.486;9.226;2022-08-19T13:07:38;30.40;48.00
62154;DHT22;48140;45.486;9.226;2022-08-19T13:10:04;30.30;48.40
62154;DHT22;48140;45.486;9.226;2022-08-19T13:12:30;29.60;49.50
62154;DHT22;48140;45.486;9.226;2022-08-19T13:14:56;29.60;50.60
62154;DHT22;48140;45.486;9.226;2022-08-19T13:17:21;30.20;49.00
62154;DHT22;48140;45.486;9.226;2022-08-19T13:19:47;30.50;48.50
62154;DHT22;48140;45.486;9.226;2022-08-19T13:22:12;30.60;47.70
62154;DHT22;48140;45.486;9.226;2022-08-19T13:24:38;30.70;46.70
62154;DHT22;48140;45.486;9.226;2022-08-19T13:27:04;30.00;48.60
62154;DHT22;48140;45.486;9.226;2022-08-19T13:29:30;29.60;50.50
62154;DHT22;48140;45.486;9.226;2022-08-19T13:32:14;30.10;49.50
62154;DHT22;48140;45.486;9.226;2022-08-19T13:34:58;30.80;48.20
62154;DHT22;48140;45.486;9.226;2022-08-19T13:37:23;30.10;48.60
62154;DHT22;48140;45.486;9.226;2022-08-19T13:40:07;30.00;49.00
62154;DHT22;48140;45.486;9.226;2022-08-19T13:42:33;30.70;47.60
62154;DHT22;48140;45.486;9.226;2022-08-19T13:44:59;30.10;48.50
62154;DHT22;48140;45.486;9.226;2022-08-19T13:47:24;30.20;48.70
62154;DHT22;48140;45.486;9.226;2022-08-19T13:49:50;30.20;49.40
62154;DHT22;48140;45.486;9.226;2022-08-19T13:52:16;29.60;50.30
62154;DHT22;48140;45.486;9.226;2022-08-19T13:54:41;29.60;51.20
62154;DHT22;48140;45.486;9.226;2022-08-19T13:57:07;29.60;50.80
62154;DHT22;48140;45.486;9.226;2022-08-19T13:59:32;29.70;51.20
62154;DHT22;48140;45.486;9.226;2022-08-19T14:01:58;29.60;50.90
62154;DHT22;48140;45.486;9.226;2022-08-19T14:04:24;29.80;51.10
62154;DHT22;48140;45.486;9.226;2022-08-19T14:06:50;30.40;48.90
62154;DHT22;48140;45.486;9.226;2022-08-19T14:09:15;30.80;47.40
62154;DHT22;48140;45.486;9.226;2022-08-19T14:11:41;31.20;47.50
62154;DHT22;48140;45.486;9.226;2022-08-19T14:14:06;32.00;45.20
62154;DHT22;48140;45.486;9.226;2022-08-19T14:16:32;32.40;43.90
62154;DHT22;48140;45.486;9.226;2022-08-19T14:18:57;32.10;44.00
62154;DHT22;48140;45.486;9.226;2022-08-19T14:21:23;32.00;44.60
62154;DHT22;48140;45.486;9.226;2022-08-19T14:23:50;31.70;44.40
62154;DHT22;48140;45.486;9.226;2022-08-19T14:26:17;31.60;42.80
62154;DHT22;48140;45.486;9.226;2022-08-19T14:28:43;31.40;43.50
62154;DHT22;48140;45.486;9.226;2022-08-19T14:31:09;31.50;43.50
62154;DHT22;48140;45.486;9.226;2022-08-19T14:33:35;30.90;43.90
62154;DHT22;48140;45.486;9.226;2022-08-19T14:36:00;30.70;44.60
62154;DHT22;48140;45.486;9.226;2022-08-19T14:38:26;30.30;45.50
62154;DHT22;48140;45.486;9.226;2022-08-19T14:40:51;30.60;44.70
62154;DHT22;48140;45.486;9.226;2022-08-19T14:43:17;30.80;43.30
62154;DHT22;48140;45.486;9.226;2022-08-19T14:45:43;30.90;40.70
62154;DHT22;48140;45.486;9.226;2022-08-19T14:48:08;31.20;38.20
62154;DHT22;48140;45.486;9.226;2022-08-19T14:50:34;31.20;36.40
62154;DHT22;48140;45.486;9.226;2022-08-19T14:53:04;31.20;35.80
62154;DHT22;48140;45.486;9.226;2022-08-19T14:55:30;30.90;36.80
62154;DHT22;48140;45.486;9.226;2022-08-19T14:57:55;30.80;37.10
62154;DHT22;48140;45.486;9.226;2022-08-19T15:00:21;30.80;37.70
62154;DHT22;48140;45.486;9.226;2022-08-19T15:02:48;30.40;37.80
62154;DHT22;48140;45.486;9.226;2022-08-19T15:05:13;30.00;39.50
62154;DHT22;48140;45.486;9.226;2022-08-19T15:07:39;29.90;39.90
62154;DHT22;48140;45.486;9.226;2022-08-19T15:10:06;29.80;40.20
62154;DHT22;48140;45.486;9.226;2022-08-19T15:12:33;29.60;40.10
62154;DHT22;48140;45.486;9.226;2022-08-19T15:14:59;29.50;40.30
62154;DHT22;48140;45.486;9.226;2022-08-19T15:17:24;29.40;40.10
62154;DHT22;48140;45.486;9.226;2022-08-19T15:19:50;29.40;40.00
62154;DHT22;48140;45.486;9.226;2022-08-19T15:22:15;29.30;40.00
62154;DHT22;48140;45.486;9.226;2022-08-19T15:24:41;29.30;39.80
62154;DHT22;48140;45.486;9.226;2022-08-19T15:27:10;29.30;39.00
62154;DHT22;48140;45.486;9.226;2022-08-19T15:29:36;29.30;39.10
62154;DHT22;48140;45.486;9.226;2022-08-19T15:32:02;29.00;39.20
62154;DHT22;48140;45.486;9.226;2022-08-19T15:34:28;29.00;39.60
62154;DHT22;48140;45.486;9.226;2022-08-19T15:36:54;28.90;39.80
62154;DHT22;48140;45.486;9.226;2022-08-19T15:39:20;28.80;40.10
62154;DHT22;48140;45.486;9.226;2022-08-19T15:41:46;28.70;40.20